createdAt,value
2018-06-24T00:01:22.911Z,46.6
2018-06-24T00:06:20.529Z,47.1
2018-06-24T00:11:17.788Z,47.2
2018-06-24T00:16:14.911Z,47
2018-06-24T00:21:18.006Z,47
2018-06-24T00:26:19.806Z,47.2
2018-06-24T00:31:15.904Z,47.3
2018-06-24T00:36:13.130Z,47.9
2018-06-24T00:41:10.243Z,48.1
2018-06-24T00:46:08.033Z,48.1
2018-06-24T00:51:05.414Z,48.6
2018-06-24T00:56:03.038Z,48.4
2018-06-24T01:01:00.071Z,48.2
2018-06-24T01:05:57.413Z,48.1
2018-06-24T01:10:54.562Z,48.3
2018-06-24T01:15:51.827Z,48.3
2018-06-24T01:20:49.371Z,48.6
2018-06-24T01:25:46.984Z,49
2018-06-24T01:30:44.261Z,48.8
2018-06-24T01:35:41.924Z,48.8
2018-06-24T01:40:39.229Z,48.8
2018-06-24T01:45:36.829Z,49
2018-06-24T01:50:34.040Z,48.9
2018-06-24T01:55:31.954Z,48.9
2018-06-24T02:00:29.666Z,49
2018-06-24T02:05:27.186Z,49.1
2018-06-24T02:10:24.640Z,49.2
2018-06-24T02:15:22.203Z,49.3
2018-06-24T02:20:19.586Z,49.2
2018-06-24T02:25:16.924Z,49.4
2018-06-24T02:30:14.368Z,49
2018-06-24T02:35:11.679Z,49
2018-06-24T02:40:08.900Z,49.2
2018-06-24T02:45:06.082Z,49.2
2018-06-24T02:50:03.498Z,49.2
2018-06-24T02:55:01.119Z,49.8
2018-06-24T02:59:58.232Z,49.7
2018-06-24T03:04:55.419Z,49.6
2018-06-24T03:09:52.775Z,49.7
2018-06-24T03:14:50.292Z,49.9
2018-06-24T03:19:47.948Z,50.8
2018-06-24T03:24:45.508Z,51.4
2018-06-24T03:29:42.603Z,51.5
2018-06-24T03:34:39.943Z,51.3
2018-06-24T03:39:37.012Z,51.5
2018-06-24T03:44:34.627Z,51.5
2018-06-24T03:49:32.010Z,51.9
2018-06-24T03:54:29.373Z,52.5
2018-06-24T03:59:27.021Z,52
2018-06-24T04:04:24.170Z,52
2018-06-24T04:09:21.788Z,51.8
2018-06-24T04:14:25.573Z,51.7
2018-06-24T04:19:21.506Z,52
2018-06-24T04:24:19.334Z,52.1
2018-06-24T04:29:16.755Z,51.8
2018-06-24T04:34:14.227Z,51.7
2018-06-24T04:39:11.618Z,51.5
2018-06-24T04:44:08.794Z,51
2018-06-24T04:49:06.717Z,51.1
2018-06-24T04:54:04.480Z,51
2018-06-24T04:59:01.721Z,51
2018-06-24T05:03:58.908Z,51.1
2018-06-24T05:08:56.160Z,50.9
2018-06-24T05:13:54.010Z,51.1
2018-06-24T05:18:51.276Z,51
2018-06-24T05:23:48.697Z,51.2
2018-06-24T05:28:46.464Z,50.9
2018-06-24T05:33:44.066Z,50.9
2018-06-24T05:38:41.465Z,51.1
2018-06-24T05:43:38.849Z,51.1
2018-06-24T05:48:36.373Z,51
2018-06-24T05:53:33.993Z,50.7
2018-06-24T05:58:31.481Z,50.8
2018-06-24T06:03:29.028Z,50.7
2018-06-24T06:08:26.581Z,50.6
2018-06-24T06:13:24.079Z,50.6
2018-06-24T06:18:21.226Z,50.9
2018-06-24T06:23:18.738Z,50.6
2018-06-24T06:28:16.116Z,50.6
2018-06-24T06:33:13.797Z,49.4
2018-06-24T06:38:11.407Z,48.5
2018-06-24T06:43:08.704Z,48.5
2018-06-24T06:48:06.249Z,48
2018-06-24T06:53:03.820Z,47.6
2018-06-24T06:58:01.396Z,47.7
2018-06-24T07:02:59.018Z,47.4
2018-06-24T07:07:56.640Z,47
2018-06-24T07:12:54.142Z,47.2
2018-06-24T07:17:51.970Z,46.9
2018-06-24T07:22:49.617Z,46.9
2018-06-24T07:27:47.240Z,45.8
2018-06-24T07:32:44.809Z,45.3
2018-06-24T07:42:39.622Z,44.3
2018-06-24T07:47:37.535Z,43.8
2018-06-24T07:52:35.149Z,43.5
2018-06-24T07:57:32.515Z,43.8
2018-06-24T08:02:30.375Z,43.5
2018-06-24T08:07:27.939Z,42.7
2018-06-24T08:12:26.215Z,42.1
2018-06-24T08:17:23.537Z,40.8
2018-06-24T08:22:20.974Z,40.9
2018-06-24T08:27:18.746Z,40.1
2018-06-24T08:32:16.169Z,39.8
2018-06-24T08:37:13.636Z,40.3
2018-06-24T08:42:11.263Z,40.2
2018-06-24T08:47:08.923Z,39.8
2018-06-24T08:52:07.159Z,39.6
2018-06-24T08:57:04.894Z,40.2
2018-06-24T09:02:02.427Z,40.4
2018-06-24T09:07:00.250Z,39.6
2018-06-24T09:11:57.653Z,38.7
2018-06-24T09:16:54.882Z,38.3
2018-06-24T09:21:52.516Z,39.4
2018-06-24T09:26:50.063Z,38.6
2018-06-24T09:31:47.772Z,37.4
2018-06-24T09:36:45.052Z,37.5
2018-06-24T09:41:42.637Z,37.5
2018-06-24T09:46:40.647Z,37.3
2018-06-24T09:51:38.308Z,37
2018-06-24T09:56:36.283Z,36.9
2018-06-24T10:01:34.880Z,36.9
2018-06-24T10:06:31.461Z,35.9
2018-06-24T10:11:29.222Z,36.3
2018-06-24T10:16:26.685Z,35.8
2018-06-24T10:21:24.311Z,34.4
2018-06-24T10:26:23.104Z,34.1
2018-06-24T10:31:19.255Z,32.9
2018-06-24T10:36:16.881Z,34.7
2018-06-24T10:41:14.516Z,34.1
2018-06-24T10:46:12.008Z,33.9
2018-06-24T10:51:09.626Z,33
2018-06-24T10:56:07.257Z,33.4
2018-06-24T11:01:04.988Z,32.6
2018-06-24T11:06:02.339Z,32.7
2018-06-24T11:11:00.130Z,32.6
2018-06-24T11:15:57.564Z,33
2018-06-24T11:20:55.389Z,33
2018-06-24T11:25:52.850Z,33.2
2018-06-24T11:30:50.805Z,32.2
2018-06-24T11:35:48.519Z,32
2018-06-24T11:40:46.181Z,31.2
2018-06-24T11:45:43.859Z,31.7
2018-06-24T11:50:41.243Z,32.4
2018-06-24T11:55:39.486Z,32.2
2018-06-24T12:00:38.356Z,32.4
2018-06-24T12:05:34.785Z,32.4
2018-06-24T12:10:32.544Z,31.5
2018-06-24T12:15:29.769Z,31
2018-06-24T12:20:27.984Z,30.5
2018-06-24T12:25:31.556Z,30.2
2018-06-24T12:30:27.923Z,30.2
2018-06-24T12:35:25.317Z,30.4
2018-06-24T12:40:22.859Z,28.8
2018-06-24T12:45:20.777Z,28.3
2018-06-24T12:50:17.952Z,28.8
2018-06-24T12:55:15.619Z,28.9
2018-06-24T13:00:13.967Z,29.1
2018-06-24T13:05:11.212Z,29.5
2018-06-24T13:10:09.583Z,27.9
2018-06-24T13:15:07.495Z,28
2018-06-24T13:20:05.774Z,26.6
2018-06-24T13:25:03.651Z,25.7
2018-06-24T13:30:01.621Z,25.7
2018-06-24T13:34:59.132Z,26.5
2018-06-24T13:39:56.477Z,26.4
2018-06-24T13:44:54.719Z,27.5
2018-06-24T13:49:51.932Z,27.8
2018-06-24T13:54:49.001Z,27.7
2018-06-24T13:59:46.012Z,28.2
2018-06-24T14:04:43.358Z,28.2
2018-06-24T14:09:42.317Z,28.2
2018-06-24T14:14:38.928Z,28.5
2018-06-24T14:19:36.146Z,28.6
2018-06-24T14:24:33.708Z,28.3
2018-06-24T14:29:31.271Z,28.3
2018-06-24T14:34:28.535Z,29
2018-06-24T14:39:26.407Z,28.8
2018-06-24T14:44:23.900Z,28.4
2018-06-24T14:49:22.634Z,28.2
2018-06-24T14:54:20.061Z,28.2
2018-06-24T14:59:16.765Z,27.8
2018-06-24T15:04:14.355Z,27.2
2018-06-24T15:09:13.224Z,27.8
2018-06-24T15:14:10.643Z,28.1
2018-06-24T15:19:08.377Z,27.6
2018-06-24T15:24:06.213Z,27.8
2018-06-24T15:29:04.546Z,27.5
2018-06-24T15:34:02.504Z,27.3
2018-06-24T15:38:59.730Z,27.3
2018-06-24T15:43:57.777Z,27.4
2018-06-24T15:48:55.929Z,27.4
2018-06-24T15:53:53.829Z,27.5
2018-06-24T15:58:51.603Z,27.1
2018-06-24T16:03:48.622Z,27.1
2018-06-24T16:08:46.045Z,27.2
2018-06-24T16:13:43.312Z,27.2
2018-06-24T16:18:40.273Z,29
2018-06-24T16:23:37.783Z,30.2
2018-06-24T16:28:34.926Z,30.9
2018-06-24T16:33:32.353Z,31.4
2018-06-24T16:38:29.669Z,31.7
2018-06-24T16:43:27.861Z,32
2018-06-24T16:48:25.201Z,32.3
2018-06-24T16:53:22.997Z,33
2018-06-24T16:58:20.269Z,33.5
2018-06-24T17:03:18.054Z,33.9
2018-06-24T17:08:15.395Z,34.2
2018-06-24T17:13:13.356Z,34.6
2018-06-24T17:18:10.701Z,34.7
2018-06-24T17:23:08.262Z,35.1
2018-06-24T17:28:06.785Z,35
2018-06-24T17:33:03.942Z,35.4
2018-06-24T17:38:01.132Z,35.6
2018-06-24T17:42:58.392Z,35.8
2018-06-24T17:47:55.595Z,35.9
2018-06-24T17:52:53.339Z,35.9
2018-06-24T17:57:50.857Z,35.9
2018-06-24T18:02:47.862Z,36.2
2018-06-24T18:07:46.994Z,36.3
2018-06-24T18:12:44.101Z,36.5
2018-06-24T18:17:41.301Z,36.5
2018-06-24T18:22:38.760Z,36.9
2018-06-24T18:27:35.969Z,37
2018-06-24T18:32:33.182Z,37.1
2018-06-24T18:37:30.602Z,37.2
2018-06-24T18:42:28.206Z,37.4
2018-06-24T18:47:25.807Z,37.5
2018-06-24T18:52:23.139Z,37.5
2018-06-24T18:57:20.469Z,37.9
2018-06-24T19:02:17.759Z,37.9
2018-06-24T19:07:14.696Z,38
2018-06-24T19:12:11.759Z,38
2018-06-24T19:17:09.213Z,38.1
2018-06-24T19:22:06.679Z,38.3
2018-06-24T19:27:03.880Z,38.5
2018-06-24T19:32:01.154Z,38.6
2018-06-24T19:36:58.427Z,38.5
2018-06-24T19:41:55.769Z,38.7
2018-06-24T19:46:52.836Z,38.8
2018-06-24T19:51:50.141Z,38.9
2018-06-24T19:56:47.395Z,39.1
2018-06-24T20:01:44.453Z,39.2
2018-06-24T20:06:41.803Z,39.3
2018-06-24T20:11:38.792Z,39.5
2018-06-24T20:16:36.457Z,39.7
2018-06-24T20:21:33.898Z,39.9
2018-06-24T20:26:32.140Z,39.9
2018-06-24T20:31:29.625Z,40.1
2018-06-24T20:36:26.876Z,40.1
2018-06-24T20:41:24.122Z,40.2
2018-06-24T20:46:21.403Z,40.3
2018-06-24T20:51:18.751Z,40.4
2018-06-24T20:56:16.753Z,40.6
2018-06-24T21:01:13.982Z,40.8
2018-06-24T21:06:11.107Z,40.8
2018-06-24T21:11:08.388Z,41.1
2018-06-24T21:16:05.718Z,41.2
2018-06-24T21:21:03.173Z,41.3
2018-06-24T21:26:00.418Z,41.4
2018-06-24T21:30:57.714Z,41.7
2018-06-24T21:35:55.343Z,41.8
2018-06-24T21:40:52.335Z,41.9
2018-06-24T21:45:49.953Z,41.9
2018-06-24T21:50:47.071Z,42.1
2018-06-24T21:55:43.960Z,42.3
2018-06-24T22:00:42.204Z,42.2
2018-06-24T22:05:39.093Z,42.1
2018-06-24T22:10:36.573Z,42.2
2018-06-24T22:15:34.367Z,42.2
2018-06-24T22:20:31.569Z,42.7
2018-06-24T22:25:29.114Z,42.8
2018-06-24T22:30:26.213Z,42.8
2018-06-24T22:35:23.611Z,43.2
2018-06-24T22:40:20.993Z,43.8
2018-06-24T22:45:18.554Z,44.3
2018-06-24T22:50:16.021Z,44.8
2018-06-24T22:55:13.256Z,45.6
2018-06-24T23:00:10.899Z,45
2018-06-24T23:05:08.296Z,44.8
2018-06-24T23:10:06.015Z,45.1
2018-06-24T23:15:03.338Z,45.3
2018-06-24T23:20:00.864Z,44.9
2018-06-24T23:24:58.282Z,44.9
2018-06-24T23:29:56.040Z,45.3
2018-06-24T23:34:53.597Z,45.1
2018-06-24T23:39:50.541Z,45.2
2018-06-24T23:44:47.673Z,45.5
2018-06-24T23:49:45.478Z,45.8
2018-06-24T23:54:42.680Z,45.8
2018-06-24T23:59:40.131Z,45.9
